Time;durP1;ratioP1;P1;durP2;ratioP2;P2;SDS_P1;SDS_P2;PMS_P1;PMS_P2;Temp;Humidity;BMP_temperature;BMP_pressure;BME280_temperature;BME280_humidity;BME280_pressure;Samples;Min_cycle;Max_cycle;Signal;HPM_P1;HPM_P2
2023/04/06 00:01:40;;;;;;;15.63;13.93;;;5.30;79.30;;;;;;5059739;28;20517;-67
2023/04/06 00:04:07;;;;;;;15.75;14.25;;;5.30;79.20;;;;;;5062319;28;20411;-69
2023/04/06 00:06:34;;;;;;;15.40;14.00;;;5.30;79.10;;;;;;5064033;28;20415;-69
2023/04/06 00:09:01;;;;;;;15.77;14.07;;;5.30;78.50;;;;;;5050181;28;20960;-69
2023/04/06 00:11:28;;;;;;;15.18;13.70;;;5.30;78.80;;;;;;5042748;28;21166;-70
2023/04/06 00:13:56;;;;;;;15.05;13.65;;;5.20;76.20;;;;;;5041633;28;20488;-69
2023/04/06 00:16:23;;;;;;;14.38;12.88;;;5.20;76.30;;;;;;5035973;28;20580;-68
2023/04/06 00:18:50;;;;;;;14.43;13.13;;;5.20;78.30;;;;;;5053578;28;20534;-69
2023/04/06 00:21:16;;;;;;;13.27;11.98;;;5.20;79.30;;;;;;5048406;28;20540;-67
2023/04/06 00:23:43;;;;;;;14.00;12.63;;;5.10;78.90;;;;;;5040706;28;20413;-69
2023/04/06 00:26:10;;;;;;;13.32;12.13;;;5.10;79.60;;;;;;5043339;28;20413;-69
2023/04/06 00:28:37;;;;;;;14.52;12.45;;;5.10;80.50;;;;;;5038659;28;20421;-70
2023/04/06 00:31:06;;;;;;;12.90;11.70;;;5.00;81.50;;;;;;5037711;28;20860;-67
2023/04/06 00:33:33;;;;;;;13.93;12.63;;;5.00;80.90;;;;;;5047943;28;20424;-67
2023/04/06 00:36:00;;;;;;;13.60;12.30;;;5.00;82.80;;;;;;5048164;28;20410;-67
2023/04/06 00:38:30;;;;;;;12.05;10.85;;;4.90;82.10;;;;;;5047500;28;20417;-70
2023/04/06 00:40:57;;;;;;;12.77;11.57;;;4.90;81.70;;;;;;5047736;28;20791;-67
2023/04/06 00:43:24;;;;;;;11.00;10.10;;;4.90;82.10;;;;;;5042831;28;20508;-68
2023/04/06 00:45:51;;;;;;;12.70;11.60;;;4.80;81.40;;;;;;5046873;28;20429;-68
2023/04/06 00:48:19;;;;;;;11.35;10.25;;;4.80;81.50;;;;;;5055980;28;20422;-68
2023/04/06 00:50:46;;;;;;;12.50;11.40;;;4.80;80.80;;;;;;5052085;28;20425;-67
2023/04/06 00:53:13;;;;;;;11.88;10.77;;;4.70;81.30;;;;;;5038603;28;20937;-68
2023/04/06 00:55:40;;;;;;;12.20;10.90;;;4.70;82.00;;;;;;5045893;28;20461;-69
2023/04/06 00:58:07;;;;;;;11.80;10.70;;;4.70;82.10;;;;;;5052243;28;20428;-67
2023/04/06 01:00:34;;;;;;;10.60;9.60;;;4.70;80.50;;;;;;5046084;28;20456;-68
2023/04/06 01:03:01;;;;;;;11.60;10.50;;;4.70;79.80;;;;;;5045421;28;20512;-68
2023/04/06 01:05:29;;;;;;;11.40;10.00;;;4.60;78.90;;;;;;5046625;28;20516;-67
2023/04/06 01:07:56;;;;;;;10.10;9.10;;;4.60;77.70;;;;;;5047695;28;20436;-68
2023/04/06 01:10:26;;;;;;;10.77;9.77;;;4.60;78.00;;;;;;5043094;28;20585;-67
2023/04/06 01:12:53;;;;;;;10.45;9.43;;;4.60;77.10;;;;;;5039568;28;20480;-67
2023/04/06 01:15:21;;;;;;;10.85;9.90;;;4.60;77.50;;;;;;5045750;28;20405;-68
2023/04/06 01:17:48;;;;;;;10.40;9.40;;;4.60;76.70;;;;;;5059613;28;20806;-66
2023/04/06 01:20:15;;;;;;;10.10;9.20;;;4.60;76.10;;;;;;5053778;28;20437;-67
2023/04/06 01:22:43;;;;;;;10.02;9.13;;;4.50;75.30;;;;;;5046619;28;20425;-67
2023/04/06 01:25:11;;;;;;;9.52;8.65;;;4.50;74.70;;;;;;5048618;28;20419;-68
2023/04/06 01:27:38;;;;;;;9.50;8.60;;;4.50;74.60;;;;;;5053386;28;20898;-69
2023/04/06 01:30:06;;;;;;;9.10;8.30;;;4.50;73.80;;;;;;5055101;28;20421;-67
2023/04/06 01:32:33;;;;;;;9.63;8.82;;;4.40;74.10;;;;;;5048658;28;20500;-68
2023/04/06 01:35:00;;;;;;;9.30;8.60;;;4.40;74.40;;;;;;5055655;28;20434;-68
2023/04/06 01:37:27;;;;;;;9.85;8.95;;;4.40;74.00;;;;;;5057122;28;20437;-68
2023/04/06 01:39:55;;;;;;;9.23;8.32;;;4.40;74.40;;;;;;5050168;28;21001;-68
2023/04/06 01:42:22;;;;;;;10.05;9.25;;;4.40;75.40;;;;;;5044804;28;20433;-68
2023/04/06 01:44:49;;;;;;;10.27;9.30;;;4.40;77.10;;;;;;5048056;28;20508;-68
2023/04/06 01:47:15;;;;;;;10.82;9.82;;;4.40;78.00;;;;;;5042743;28;20910;-69
2023/04/06 01:49:42;;;;;;;10.70;9.60;;;4.30;78.80;;;;;;5050975;28;20420;-69
2023/04/06 01:52:09;;;;;;;10.00;9.15;;;4.30;78.90;;;;;;5052163;28;20438;-69
2023/04/06 01:54:36;;;;;;;10.30;9.38;;;4.20;78.90;;;;;;5038989;28;20744;-68
2023/04/06 01:57:04;;;;;;;9.50;8.60;;;4.20;77.50;;;;;;5044387;28;22058;-68
2023/04/06 01:59:31;;;;;;;9.20;8.40;;;4.20;75.50;;;;;;5042496;28;20425;-68
2023/04/06 02:01:58;;;;;;;9.85;8.95;;;4.10;75.30;;;;;;5046429;28;20435;-68
2023/04/06 02:04:25;;;;;;;9.15;8.35;;;4.10;75.10;;;;;;5045679;28;20531;-70
2023/04/06 02:06:52;;;;;;;9.20;8.50;;;4.10;76.20;;;;;;5059687;28;20419;-68
2023/04/06 02:09:19;;;;;;;9.27;8.48;;;4.10;75.80;;;;;;5054898;28;20518;-67
2023/04/06 02:11:46;;;;;;;9.77;8.88;;;4.10;75.50;;;;;;5042893;28;20433;-69
2023/04/06 02:14:14;;;;;;;9.35;8.60;;;4.00;76.60;;;;;;5044080;28;20520;-67
2023/04/06 02:16:41;;;;;;;9.63;8.73;;;4.00;77.60;;;;;;5060595;28;20427;-66
2023/04/06 02:19:08;;;;;;;9.77;8.77;;;4.00;77.70;;;;;;5047834;28;20414;-67
2023/04/06 02:21:35;;;;;;;9.13;8.27;;;4.00;77.90;;;;;;5049091;28;20439;-69
2023/04/06 02:24:02;;;;;;;9.57;8.57;;;4.00;78.80;;;;;;5050368;28;20462;-68
2023/04/06 02:26:28;;;;;;;9.50;8.60;;;4.00;78.70;;;;;;5047659;28;20913;-67
2023/04/06 02:28:55;;;;;;;10.20;9.20;;;4.00;79.70;;;;;;5040819;28;20424;-68
2023/04/06 02:31:24;;;;;;;9.70;8.90;;;4.00;79.70;;;;;;5046618;28;20443;-68
2023/04/06 02:33:51;;;;;;;9.40;8.60;;;3.90;80.30;;;;;;5046410;28;20482;-69
2023/04/06 02:36:17;;;;;;;9.10;8.20;;;4.00;79.60;;;;;;5045595;28;20856;-68
2023/04/06 02:38:44;;;;;;;10.10;9.30;;;3.90;79.40;;;;;;5037240;28;20497;-69
2023/04/06 02:41:11;;;;;;;9.90;9.10;;;3.90;79.50;;;;;;5043113;28;20572;-69
2023/04/06 02:43:38;;;;;;;9.70;8.80;;;3.90;79.90;;;;;;5047865;28;20481;-69
2023/04/06 02:46:05;;;;;;;9.65;8.75;;;3.90;79.80;;;;;;5049561;28;20519;-69
2023/04/06 02:48:35;;;;;;;9.60;8.70;;;3.80;79.70;;;;;;5044069;28;20771;-69
2023/04/06 02:51:02;;;;;;;9.82;8.93;;;3.80;80.30;;;;;;5050631;28;20423;-68
2023/04/06 02:53:29;;;;;;;9.35;8.45;;;3.80;78.90;;;;;;5041878;28;20423;-68
2023/04/06 02:55:56;;;;;;;9.00;8.30;;;3.80;79.20;;;;;;5046521;28;20429;-71
2023/04/06 02:58:23;;;;;;;9.73;8.82;;;3.80;78.70;;;;;;5045752;28;20460;-68
2023/04/06 03:00:50;;;;;;;9.70;8.90;;;3.70;78.60;;;;;;5056153;28;20420;-67
2023/04/06 03:03:17;;;;;;;9.60;8.70;;;3.70;79.50;;;;;;5058827;28;20445;-67
2023/04/06 03:05:45;;;;;;;9.60;8.70;;;3.70;78.90;;;;;;5046592;28;20492;-67
2023/04/06 03:08:12;;;;;;;9.07;8.38;;;3.70;78.90;;;;;;5039206;28;20453;-67
2023/04/06 03:10:39;;;;;;;9.38;8.50;;;3.70;78.40;;;;;;5045795;28;20435;-67
2023/04/06 03:13:05;;;;;;;9.20;8.40;;;3.60;79.00;;;;;;5046373;28;20436;-67
2023/04/06 03:15:32;;;;;;;9.90;9.00;;;3.60;79.20;;;;;;5064360;28;20423;-67
2023/04/06 03:17:59;;;;;;;9.98;9.07;;;3.60;79.70;;;;;;5047830;28;20509;-67
2023/04/06 03:20:26;;;;;;;10.27;9.38;;;3.60;79.70;;;;;;5057063;28;20473;-67
2023/04/06 03:22:54;;;;;;;9.93;9.02;;;3.60;80.20;;;;;;5044588;28;20467;-67
2023/04/06 03:25:21;;;;;;;10.10;8.75;;;3.50;80.50;;;;;;5035181;28;20903;-67
2023/04/06 03:27:48;;;;;;;9.68;8.88;;;3.50;81.50;;;;;;5040894;28;20517;-67
2023/04/06 03:30:15;;;;;;;9.70;8.90;;;3.50;81.60;;;;;;5059237;28;20838;-68
2023/04/06 03:32:42;;;;;;;10.23;9.43;;;3.50;82.10;;;;;;5045149;28;20500;-67
2023/04/06 03:35:10;;;;;;;10.80;9.80;;;3.50;82.50;;;;;;5044355;28;20464;-68
2023/04/06 03:37:37;;;;;;;9.20;8.30;;;3.50;82.50;;;;;;5043742;28;20425;-69
2023/04/06 03:40:06;;;;;;;9.73;8.82;;;3.50;82.60;;;;;;5048091;28;20415;-67
2023/04/06 03:42:33;;;;;;;9.48;8.60;;;3.40;82.70;;;;;;5044967;28;20456;-68
2023/04/06 03:45:00;;;;;;;9.00;8.10;;;3.50;83.50;;;;;;5044458;28;20888;-67
2023/04/06 03:47:27;;;;;;;9.50;8.60;;;3.40;82.90;;;;;;5045290;28;20514;-67
2023/04/06 03:49:55;;;;;;;9.73;8.90;;;3.40;82.90;;;;;;5045151;28;20517;-66
2023/04/06 03:52:22;;;;;;;9.23;8.32;;;3.40;82.40;;;;;;5042578;28;20418;-67
2023/04/06 03:54:49;;;;;;;10.20;9.20;;;3.30;82.70;;;;;;5042103;28;20429;-67
2023/04/06 03:57:17;;;;;;;9.90;9.00;;;3.40;81.60;;;;;;5042778;28;20631;-67
2023/04/06 03:59:44;;;;;;;9.80;8.90;;;3.40;82.10;;;;;;5036435;28;20421;-68
2023/04/06 04:02:11;;;;;;;9.15;8.35;;;3.30;81.80;;;;;;5046780;28;20429;-67
2023/04/06 04:04:39;;;;;;;10.00;8.82;;;3.40;82.30;;;;;;5054834;28;20491;-67
2023/04/06 04:07:05;;;;;;;9.25;8.45;;;3.30;82.00;;;;;;5056316;28;20495;-68
2023/04/06 04:09:32;;;;;;;9.88;9.00;;;3.30;81.80;;;;;;5041890;28;20488;-67
2023/04/06 04:11:59;;;;;;;9.82;8.93;;;3.30;81.60;;;;;;5044524;28;20487;-67
2023/04/06 04:14:27;;;;;;;9.27;8.57;;;3.30;81.30;;;;;;5056204;28;20562;-67
2023/04/06 04:16:54;;;;;;;9.52;8.73;;;3.20;80.80;;;;;;5046607;28;20896;-68
2023/04/06 04:19:21;;;;;;;9.80;8.80;;;3.20;80.80;;;;;;5048624;28;20480;-67
2023/04/06 04:21:48;;;;;;;10.82;9.85;;;3.20;80.70;;;;;;5057314;28;20985;-67
2023/04/06 04:24:15;;;;;;;10.27;9.35;;;3.10;80.50;;;;;;5064272;28;20446;-72
2023/04/06 04:26:42;;;;;;;10.15;9.20;;;3.10;80.40;;;;;;5058413;28;20530;-68
2023/04/06 04:29:09;;;;;;;9.32;8.52;;;3.10;79.50;;;;;;5052984;28;20421;-67
2023/04/06 04:31:37;;;;;;;9.80;8.90;;;3.00;79.60;;;;;;5045597;28;20431;-67
2023/04/06 04:34:06;;;;;;;9.77;8.80;;;3.10;79.60;;;;;;5033411;28;20551;-67
2023/04/06 04:36:33;;;;;;;9.60;8.80;;;3.10;79.10;;;;;;5052517;28;20432;-67
2023/04/06 04:39:00;;;;;;;9.50;8.60;;;3.00;78.90;;;;;;5042112;28;20423;-70
2023/04/06 04:41:27;;;;;;;9.70;8.80;;;3.00;79.70;;;;;;5058774;28;20421;-67
2023/04/06 04:43:54;;;;;;;9.27;8.48;;;3.00;80.70;;;;;;5031758;28;20802;-69
2023/04/06 04:46:21;;;;;;;10.50;9.07;;;3.00;81.20;;;;;;5038660;28;20958;-69
2023/04/06 04:48:49;;;;;;;9.60;8.70;;;2.90;81.20;;;;;;5044897;28;20538;-70
2023/04/06 04:51:16;;;;;;;11.32;9.00;;;2.90;81.50;;;;;;5031098;28;20929;-69
2023/04/06 04:53:43;;;;;;;9.73;8.73;;;2.90;82.40;;;;;;5039265;28;20421;-70
2023/04/06 04:56:10;;;;;;;9.55;8.55;;;2.90;83.00;;;;;;5044730;28;20456;-72
2023/04/06 04:58:37;;;;;;;10.45;9.35;;;2.90;82.70;;;;;;5034329;28;20451;-70
2023/04/06 05:01:04;;;;;;;9.43;8.48;;;2.80;83.20;;;;;;5047830;28;20896;-70
2023/04/06 05:03:33;;;;;;;10.00;8.45;;;2.80;83.40;;;;;;5057037;28;20450;-69
2023/04/06 05:06:02;;;;;;;9.40;8.50;;;2.80;82.60;;;;;;5043113;28;20475;-69
2023/04/06 05:08:29;;;;;;;10.13;8.40;;;2.80;83.50;;;;;;5036036;28;20512;-70
2023/04/06 05:10:56;;;;;;;10.50;8.98;;;2.80;82.30;;;;;;5040385;28;20446;-69
2023/04/06 05:13:22;;;;;;;12.20;9.30;;;2.80;82.70;;;;;;5041344;28;20437;-69
2023/04/06 05:15:49;;;;;;;11.13;9.43;;;2.80;82.50;;;;;;5044299;28;20431;-69
2023/04/06 05:18:16;;;;;;;11.82;9.85;;;2.90;82.20;;;;;;5037761;28;20608;-66
2023/04/06 05:20:44;;;;;;;13.50;10.90;;;2.80;82.40;;;;;;5051731;28;20848;-68
2023/04/06 05:23:12;;;;;;;16.05;11.63;;;2.90;82.30;;;;;;5053660;28;20543;-67
2023/04/06 05:25:39;;;;;;;13.40;11.00;;;2.90;81.90;;;;;;5061719;28;20433;-68
2023/04/06 05:28:06;;;;;;;14.38;10.98;;;2.90;81.60;;;;;;5063847;28;20493;-68
2023/04/06 05:30:33;;;;;;;20.02;12.57;;;2.90;80.60;;;;;;5058896;28;20437;-67
2023/04/06 05:33:00;;;;;;;14.70;11.00;;;2.90;80.70;;;;;;5064699;28;20465;-68
2023/04/06 05:35:27;;;;;;;11.98;9.95;;;2.90;80.70;;;;;;5063769;28;20526;-69
2023/04/06 05:37:53;;;;;;;10.60;9.50;;;2.90;79.60;;;;;;5059571;28;20449;-69
2023/04/06 05:40:22;;;;;;;11.18;9.57;;;2.90;79.40;;;;;;5063485;28;20463;-70
2023/04/06 05:42:49;;;;;;;12.85;9.32;;;3.00;79.40;;;;;;5062137;28;20479;-69
2023/04/06 05:45:18;;;;;;;10.40;9.30;;;3.00;79.20;;;;;;5061828;28;20443;-69
2023/04/06 05:47:45;;;;;;;9.43;8.63;;;3.10;79.20;;;;;;5053619;28;20431;-67
2023/04/06 05:50:13;;;;;;;9.15;8.35;;;3.10;78.00;;;;;;5059742;28;20452;-67
2023/04/06 05:52:42;;;;;;;9.40;8.50;;;3.20;78.00;;;;;;5058004;28;20488;-69
2023/04/06 05:55:10;;;;;;;10.48;8.20;;;3.20;77.80;;;;;;5042559;28;20437;-67
2023/04/06 06:00:17;;;;;;;8.98;8.27;;;3.20;77.70;;;;;;5178573;27;20366;-71
2023/04/06 06:02:44;;;;;;;8.80;8.00;;;3.30;76.80;;;;;;5178331;27;20775;-71
2023/04/06 06:05:11;;;;;;;9.95;8.95;;;3.40;77.10;;;;;;5178121;27;20423;-71
2023/04/06 06:07:38;;;;;;;8.65;7.93;;;3.40;76.80;;;;;;5179202;27;20422;-71
2023/04/06 06:10:08;;;;;;;9.80;8.90;;;3.40;76.10;;;;;;5160367;27;20426;-71
2023/04/06 06:12:35;;;;;;;9.87;8.87;;;3.50;76.20;;;;;;5160821;27;20420;-72
2023/04/06 06:15:01;;;;;;;9.43;8.63;;;3.50;76.60;;;;;;5159104;27;20998;-72
2023/04/06 06:17:30;;;;;;;10.48;9.48;;;3.60;76.20;;;;;;5154110;27;20953;-71
2023/04/06 06:19:56;;;;;;;9.75;8.85;;;3.60;76.00;;;;;;5159131;27;20420;-72
2023/04/06 06:22:23;;;;;;;9.95;8.95;;;3.60;76.10;;;;;;5158470;27;20524;-71
2023/04/06 06:24:50;;;;;;;10.20;9.20;;;3.70;76.00;;;;;;5158407;27;20916;-70
2023/04/06 06:27:17;;;;;;;10.10;9.20;;;3.70;76.20;;;;;;5155559;27;20984;-71
2023/04/06 06:29:45;;;;;;;9.75;8.85;;;3.80;76.10;;;;;;5159254;27;20419;-71
2023/04/06 06:32:12;;;;;;;9.77;8.88;;;3.90;75.80;;;;;;5162543;27;20424;-72
2023/04/06 06:34:41;;;;;;;9.80;8.90;;;4.00;75.40;;;;;;5160571;27;20480;-72
2023/04/06 06:37:07;;;;;;;10.20;9.20;;;4.10;74.60;;;;;;5158272;27;20429;-73
2023/04/06 06:39:35;;;;;;;10.20;9.30;;;4.10;74.30;;;;;;5156126;27;20418;-70
2023/04/06 06:42:02;;;;;;;9.63;8.83;;;4.20;74.80;;;;;;5146427;27;20421;-71
2023/04/06 06:44:29;;;;;;;9.90;9.00;;;4.20;75.00;;;;;;5158563;27;20794;-71
2023/04/06 06:46:56;;;;;;;10.70;9.32;;;4.30;73.70;;;;;;5166319;27;20420;-72
2023/04/06 06:49:23;;;;;;;10.30;9.40;;;4.40;73.70;;;;;;5154029;27;20579;-72
2023/04/06 06:51:51;;;;;;;9.80;9.00;;;4.40;73.20;;;;;;5154651;27;20504;-72
2023/04/06 06:54:18;;;;;;;11.18;9.63;;;4.50;73.00;;;;;;5161538;27;20450;-72
2023/04/06 06:56:44;;;;;;;10.20;9.30;;;4.50;72.60;;;;;;5151832;27;20434;-72
2023/04/06 06:59:11;;;;;;;9.97;9.03;;;4.70;72.70;;;;;;5153642;27;20429;-71
2023/04/06 07:01:38;;;;;;;9.90;9.00;;;4.80;72.30;;;;;;5154145;27;20427;-71
2023/04/06 07:04:05;;;;;;;9.60;8.70;;;4.80;72.30;;;;;;5155126;27;20984;-71
2023/04/06 07:06:32;;;;;;;10.10;9.00;;;4.90;71.80;;;;;;5162106;27;20428;-71
2023/04/06 07:09:00;;;;;;;9.73;8.93;;;5.10;71.50;;;;;;5156157;27;20459;-71
2023/04/06 07:11:27;;;;;;;9.65;8.90;;;5.30;70.60;;;;;;5147289;27;20931;-71
2023/04/06 07:13:54;;;;;;;10.00;9.20;;;5.40;68.70;;;;;;5138675;27;20460;-72
2023/04/06 07:16:21;;;;;;;10.95;9.70;;;5.50;69.40;;;;;;5143654;27;20432;-71
2023/04/06 07:18:48;;;;;;;10.10;9.20;;;5.70;68.90;;;;;;5140168;27;20512;-71
2023/04/06 07:21:15;;;;;;;10.60;9.60;;;5.90;68.20;;;;;;5140571;27;20415;-71
2023/04/06 07:23:42;;;;;;;10.30;9.30;;;6.10;67.40;;;;;;5147031;27;20417;-71
2023/04/06 07:26:10;;;;;;;10.13;9.32;;;6.30;66.20;;;;;;5144899;27;20816;-71
2023/04/06 07:28:37;;;;;;;10.13;9.23;;;6.50;64.20;;;;;;5142615;27;20940;-72
2023/04/06 07:31:04;;;;;;;10.00;9.00;;;6.70;63.70;;;;;;5144237;27;20970;-73
2023/04/06 07:33:36;;;;;;;10.20;9.27;;;6.80;63.30;;;;;;5141462;27;20912;-72
2023/04/06 07:36:06;;;;;;;9.10;8.30;;;7.10;62.70;;;;;;5141756;27;20895;-72
2023/04/06 07:38:32;;;;;;;10.50;9.50;;;7.40;61.60;;;;;;5145656;27;20432;-71
2023/04/06 07:41:00;;;;;;;10.35;9.30;;;7.50;59.50;;;;;;5143494;27;20523;-72
2023/04/06 07:43:28;;;;;;;10.30;9.20;;;7.70;59.50;;;;;;5139041;27;20421;-72
2023/04/06 07:45:57;;;;;;;10.45;9.25;;;7.70;59.40;;;;;;5139089;27;20642;-72
2023/04/06 07:48:23;;;;;;;17.40;9.90;;;7.90;59.20;;;;;;5137471;27;20432;-72
2023/04/06 07:50:50;;;;;;;9.70;8.90;;;8.00;60.40;;;;;;5139459;27;20421;-72
2023/04/06 07:53:17;;;;;;;9.88;9.00;;;8.00;59.80;;;;;;5142374;27;20435;-72
2023/04/06 07:55:44;;;;;;;10.18;9.20;;;8.10;58.70;;;;;;5145630;27;20424;-69
2023/04/06 07:58:11;;;;;;;10.30;9.40;;;8.30;58.50;;;;;;5143519;27;20455;-70
2023/04/06 08:00:39;;;;;;;10.45;9.55;;;8.40;58.20;;;;;;5140775;27;20511;-71
2023/04/06 08:03:06;;;;;;;9.93;9.10;;;8.30;58.20;;;;;;5146913;27;20739;-70
2023/04/06 08:05:33;;;;;;;9.93;8.93;;;8.30;58.00;;;;;;5147891;27;20515;-71
2023/04/06 08:08:00;;;;;;;10.43;9.43;;;8.30;58.10;;;;;;5135157;27;20426;-71
2023/04/06 08:10:27;;;;;;;10.65;9.50;;;8.40;58.00;;;;;;5141700;27;20416;-71
2023/04/06 08:12:54;;;;;;;10.60;9.60;;;8.50;57.80;;;;;;5137160;27;20521;-71
2023/04/06 08:15:21;;;;;;;10.10;9.20;;;8.60;57.10;;;;;;5141223;27;20460;-71
2023/04/06 08:17:49;;;;;;;10.43;9.43;;;8.70;55.80;;;;;;5136149;27;20544;-69
2023/04/06 08:20:16;;;;;;;10.07;9.07;;;8.90;55.20;;;;;;5132765;27;20429;-70
2023/04/06 08:22:43;;;;;;;10.40;9.40;;;9.30;54.70;;;;;;5143910;27;20446;-70
2023/04/06 08:25:10;;;;;;;9.80;8.90;;;9.60;53.60;;;;;;5141949;27;20425;-70
2023/04/06 08:27:37;;;;;;;10.80;9.70;;;9.80;52.80;;;;;;5137962;27;20410;-70
2023/04/06 08:30:04;;;;;;;10.85;9.75;;;9.90;51.80;;;;;;5144898;27;20424;-69
2023/04/06 08:32:31;;;;;;;10.23;9.43;;;9.90;51.80;;;;;;5146948;27;20455;-70
2023/04/06 08:34:59;;;;;;;10.37;9.47;;;10.00;52.20;;;;;;5145010;27;20515;-70
2023/04/06 08:37:26;;;;;;;10.43;9.32;;;10.20;51.40;;;;;;5139601;27;20847;-70
2023/04/06 08:39:53;;;;;;;10.33;9.37;;;10.50;51.20;;;;;;5143092;27;20417;-70
2023/04/06 08:42:22;;;;;;;10.68;9.77;;;10.50;49.50;;;;;;5138895;27;20889;-70
2023/04/06 08:44:50;;;;;;;10.25;9.32;;;10.50;49.00;;;;;;5140585;27;20495;-70
2023/04/06 08:47:17;;;;;;;11.05;10.05;;;10.50;48.60;;;;;;5142411;27;20426;-70
2023/04/06 08:49:46;;;;;;;11.00;9.95;;;10.60;49.10;;;;;;5143158;27;20503;-70
2023/04/06 08:52:18;;;;;;;10.57;9.65;;;10.60;48.40;;;;;;5138989;27;20419;-71
2023/04/06 08:54:45;;;;;;;11.13;10.13;;;10.80;48.90;;;;;;5148796;27;20409;-70
2023/04/06 08:57:13;;;;;;;10.18;9.27;;;11.10;47.80;;;;;;5137543;27;20709;-69
2023/04/06 08:59:41;;;;;;;11.00;9.90;;;11.40;47.10;;;;;;5150203;27;20429;-70
2023/04/06 09:02:14;;;;;;;10.50;9.60;;;11.50;46.40;;;;;;5149927;27;20430;-70
2023/04/06 09:04:41;;;;;;;11.65;10.45;;;11.60;46.30;;;;;;5152403;27;20413;-70
2023/04/06 09:07:08;;;;;;;11.32;10.13;;;11.90;46.00;;;;;;5138350;27;20842;-71
2023/04/06 09:09:36;;;;;;;11.15;10.15;;;12.20;44.90;;;;;;5141768;27;20411;-70
2023/04/06 09:12:05;;;;;;;11.30;10.20;;;12.40;44.60;;;;;;5150069;27;20456;-70
2023/04/06 09:14:37;;;;;;;11.20;10.10;;;12.60;44.00;;;;;;5150515;27;20775;-69
2023/04/06 09:17:04;;;;;;;11.63;10.52;;;12.80;44.00;;;;;;5141552;27;20546;-70
2023/04/06 09:19:31;;;;;;;10.85;9.85;;;12.70;43.60;;;;;;5148012;27;20447;-69
2023/04/06 09:22:06;;;;;;;11.13;10.07;;;12.70;43.80;;;;;;5136156;27;20796;-70
2023/04/06 09:24:46;;;;;;;11.88;10.35;;;12.70;44.50;;;;;;5149482;27;20416;-70
2023/04/06 09:27:14;;;;;;;11.32;10.27;;;13.00;44.60;;;;;;5150246;27;20413;-70
2023/04/06 09:29:41;;;;;;;11.32;10.32;;;13.20;43.40;;;;;;5148492;27;20425;-70
2023/04/06 09:32:11;;;;;;;11.30;10.15;;;13.30;43.00;;;;;;5143572;27;20424;-70
2023/04/06 09:34:39;;;;;;;12.20;11.00;;;13.30;42.90;;;;;;5139007;27;20405;-70
2023/04/06 09:37:15;;;;;;;12.15;10.95;;;13.30;43.00;;;;;;5147639;27;20400;-71
2023/04/06 09:39:44;;;;;;;12.57;11.27;;;13.40;43.10;;;;;;5149590;27;20442;-71
2023/04/06 09:42:12;;;;;;;12.90;11.70;;;13.30;42.80;;;;;;5149895;27;20715;-70
2023/04/06 09:44:39;;;;;;;11.90;10.70;;;13.10;43.00;;;;;;5147697;27;20430;-71
2023/04/06 09:47:08;;;;;;;12.03;10.93;;;13.00;43.70;;;;;;5138468;27;20675;-70
2023/04/06 09:49:35;;;;;;;12.15;11.05;;;13.00;43.80;;;;;;5139186;27;20417;-71
2023/04/06 09:52:07;;;;;;;11.10;10.10;;;13.00;43.90;;;;;;5149083;27;20481;-68
2023/04/06 09:54:37;;;;;;;11.53;10.33;;;13.20;43.80;;;;;;5142030;27;20965;-70
2023/04/06 09:57:12;;;;;;;11.40;10.40;;;13.20;43.80;;;;;;5148942;27;20432;-70
2023/04/06 09:59:44;;;;;;;11.68;10.55;;;13.40;43.60;;;;;;5148161;27;20907;-68
2023/04/06 10:02:19;;;;;;;12.27;11.07;;;13.60;43.10;;;;;;5147014;27;20424;-68
2023/04/06 10:04:54;;;;;;;11.30;10.30;;;13.90;42.30;;;;;;5143895;27;20401;-69
2023/04/06 10:07:21;;;;;;;10.57;9.68;;;14.00;42.30;;;;;;5143194;27;20448;-69
2023/04/06 10:09:50;;;;;;;11.27;10.15;;;14.10;41.80;;;;;;5139476;27;20409;-68
2023/04/06 10:12:18;;;;;;;11.68;10.50;;;14.30;42.50;;;;;;5133935;27;20484;-69
2023/04/06 10:14:45;;;;;;;10.88;9.88;;;14.40;41.60;;;;;;5147883;27;20430;-70
2023/04/06 10:17:12;;;;;;;12.43;10.30;;;14.70;41.50;;;;;;5141726;27;20593;-68
2023/04/06 10:19:47;;;;;;;11.30;10.30;;;15.00;40.80;;;;;;5130298;27;20530;-69
2023/04/06 10:22:19;;;;;;;10.95;9.95;;;15.10;40.40;;;;;;5142849;27;20415;-71
2023/04/06 10:24:46;;;;;;;10.85;9.75;;;15.40;40.40;;;;;;5141638;27;20425;-69
2023/04/06 10:27:13;;;;;;;11.45;10.35;;;15.80;39.50;;;;;;5137088;27;20431;-70
2023/04/06 10:29:49;;;;;;;11.18;10.07;;;16.10;38.80;;;;;;5136864;27;20420;-72
2023/04/06 10:32:16;;;;;;;11.95;10.75;;;16.30;38.60;;;;;;5140874;27;20433;-69
2023/04/06 10:34:43;;;;;;;12.05;10.85;;;16.30;38.40;;;;;;5143444;27;20429;-69
2023/04/06 10:37:18;;;;;;;11.80;10.70;;;16.30;36.90;;;;;;5146123;27;20420;-69
2023/04/06 10:39:54;;;;;;;12.80;10.80;;;16.10;37.40;;;;;;5139282;27;20480;-70
2023/04/06 10:42:25;;;;;;;12.10;10.77;;;15.90;37.80;;;;;;5135281;27;20921;-70
2023/04/06 10:44:53;;;;;;;12.43;11.20;;;15.50;37.50;;;;;;5138711;27;20465;-70
2023/04/06 10:47:20;;;;;;;11.90;10.80;;;15.40;38.10;;;;;;5140843;27;20430;-71
2023/04/06 10:49:47;;;;;;;12.13;10.93;;;15.30;38.40;;;;;;5150710;27;20425;-70
2023/04/06 10:52:13;;;;;;;12.77;11.48;;;15.30;38.00;;;;;;5143140;27;20431;-71
2023/04/06 10:54:44;;;;;;;12.80;11.30;;;15.20;38.10;;;;;;5138446;27;20507;-69
2023/04/06 10:57:11;;;;;;;12.50;11.20;;;15.30;38.50;;;;;;5145580;27;20908;-71
2023/04/06 10:59:42;;;;;;;12.48;11.20;;;15.40;38.50;;;;;;5143952;27;20537;-72
2023/04/06 11:02:20;;;;;;;11.65;10.40;;;15.50;38.50;;;;;;5143243;27;20404;-71
2023/04/06 11:04:55;;;;;;;11.70;10.50;;;15.50;37.50;;;;;;5145492;27;20443;-71
2023/04/06 11:07:24;;;;;;;12.00;10.80;;;15.40;37.20;;;;;;5137475;27;20430;-71
2023/04/06 11:09:51;;;;;;;12.40;11.20;;;15.30;37.80;;;;;;5136466;27;20414;-71
2023/04/06 11:12:22;;;;;;;12.40;10.87;;;15.20;37.50;;;;;;5145840;27;20999;-71
2023/04/06 11:14:55;;;;;;;12.18;10.98;;;15.00;38.00;;;;;;5138973;27;20430;-72
2023/04/06 11:17:28;;;;;;;11.63;10.43;;;15.00;37.60;;;;;;5144761;27;20435;-71
2023/04/06 11:19:55;;;;;;;13.13;11.32;;;15.00;37.70;;;;;;5148364;27;20427;-71
2023/04/06 11:22:22;;;;;;;12.32;10.98;;;15.00;37.10;;;;;;5146182;27;20512;-70
2023/04/06 11:24:49;;;;;;;12.85;11.55;;;14.90;37.10;;;;;;5147094;27;20484;-71
2023/04/06 11:27:17;;;;;;;12.30;11.00;;;14.80;36.70;;;;;;5147233;27;20413;-71
2023/04/06 11:29:45;;;;;;;13.03;11.37;;;14.70;37.40;;;;;;5137456;27;21155;-70
2023/04/06 11:32:12;;;;;;;11.27;10.17;;;14.70;36.60;;;;;;5135717;27;20418;-72
2023/04/06 11:34:41;;;;;;;12.60;11.20;;;15.00;40.00;;;;;;5148678;27;20853;-71
2023/04/06 11:37:09;;;;;;;11.48;10.25;;;15.10;38.10;;;;;;5145762;27;20435;-70
2023/04/06 11:39:40;;;;;;;11.68;9.90;;;15.20;36.50;;;;;;5144699;27;20508;-73
2023/04/06 11:42:07;;;;;;;12.02;10.73;;;15.10;35.70;;;;;;5143128;27;20609;-74
2023/04/06 11:44:35;;;;;;;11.70;10.60;;;15.10;36.50;;;;;;5151123;27;20527;-70
2023/04/06 11:47:03;;;;;;;11.45;10.25;;;15.00;35.60;;;;;;5146865;27;20868;-71
2023/04/06 11:49:30;;;;;;;11.50;10.30;;;15.00;35.80;;;;;;5142283;27;20842;-74
2023/04/06 11:51:59;;;;;;;12.40;11.20;;;15.00;36.70;;;;;;5147213;27;20881;-71
2023/04/06 11:54:34;;;;;;;11.23;10.02;;;14.90;36.10;;;;;;5148767;27;20859;-70
2023/04/06 11:57:01;;;;;;;11.57;10.38;;;14.80;36.40;;;;;;5138224;27;20867;-71
2023/04/06 11:59:28;;;;;;;11.50;10.30;;;14.70;36.80;;;;;;5154674;22;20445;-72
2023/04/06 12:01:55;;;;;;;12.30;11.10;;;14.70;37.50;;;;;;5100712;28;20494;-72
2023/04/06 12:04:22;;;;;;;11.57;10.37;;;14.70;37.20;;;;;;5087131;28;20460;-72
2023/04/06 12:06:52;;;;;;;11.30;10.10;;;14.70;37.60;;;;;;5081809;28;20505;-71
2023/04/06 12:09:20;;;;;;;10.80;9.70;;;14.80;37.50;;;;;;5090461;28;20424;-73
2023/04/06 12:11:47;;;;;;;10.95;8.70;;;14.90;37.60;;;;;;5089576;28;20429;-72
2023/04/06 12:14:14;;;;;;;10.50;9.40;;;15.10;35.80;;;;;;5087276;28;20440;-72
2023/04/06 12:16:41;;;;;;;10.93;9.82;;;15.10;36.00;;;;;;5092729;28;20440;-73
2023/04/06 12:19:08;;;;;;;11.43;10.23;;;15.20;35.80;;;;;;5102969;28;20489;-73
2023/04/06 12:21:36;;;;;;;10.55;9.55;;;15.20;35.80;;;;;;5097783;28;20461;-72
2023/04/06 12:24:03;;;;;;;11.27;9.80;;;15.20;36.20;;;;;;5088668;28;20499;-72
2023/04/06 12:26:32;;;;;;;10.05;8.95;;;15.40;35.70;;;;;;5090418;28;20737;-73
2023/04/06 12:29:04;;;;;;;8.98;7.90;;;15.40;35.50;;;;;;5087935;28;20536;-72
2023/04/06 12:31:31;;;;;;;9.10;8.20;;;15.30;35.30;;;;;;5087006;28;21017;-72
2023/04/06 12:33:58;;;;;;;9.23;8.23;;;15.20;35.90;;;;;;5088770;28;20497;-72
2023/04/06 12:36:25;;;;;;;9.70;8.70;;;15.00;35.90;;;;;;5088456;28;20497;-74
2023/04/06 12:38:52;;;;;;;9.60;8.70;;;14.90;36.40;;;;;;5104683;28;20500;-72
2023/04/06 12:41:19;;;;;;;10.07;8.63;;;14.90;36.70;;;;;;5093167;28;20795;-72
2023/04/06 12:43:49;;;;;;;10.50;9.40;;;15.00;37.00;;;;;;5088557;28;20433;-72
2023/04/06 12:46:16;;;;;;;9.93;8.70;;;14.90;37.10;;;;;;5101707;28;20535;-73
2023/04/06 12:48:43;;;;;;;9.52;8.00;;;14.90;37.10;;;;;;5098646;28;20420;-72